Time;durP1;ratioP1;P1;durP2;ratioP2;P2;SDS_P1;SDS_P2;PMS_P1;PMS_P2;Temp;Humidity;BMP_temperature;BMP_pressure;BME280_temperature;BME280_humidity;BME280_pressure;Samples;Min_cycle;Max_cycle;Signal;HPM_P1;HPM_P2
2021/05/04 00:00:13;;;;;;;3.95;2.40;;;;;;;14.59;49.05;94937.84;2966233;40;20405;-82
2021/05/04 00:02:14;;;;;;;3.13;2.58;;;;;;;14.51;49.15;94949.25;2968272;40;20394;-83
2021/05/04 00:04:16;;;;;;;7.35;3.53;;;;;;;14.34;48.95;94952.00;2971791;40;20054;-82
2021/05/04 00:06:17;;;;;;;3.78;2.42;;;;;;;14.33;49.48;94963.53;2971007;39;20093;-81
2021/05/04 00:08:18;;;;;;;4.85;2.25;;;;;;;14.33;48.98;94960.91;2974224;39;20051;-81
2021/05/04 00:10:20;;;;;;;3.15;2.05;;;;;;;14.28;49.52;94954.50;2969447;39;20060;-82
2021/05/04 00:12:21;;;;;;;3.03;2.00;;;;;;;14.27;49.06;94945.78;2970714;39;20068;-81
2021/05/04 00:14:22;;;;;;;2.70;2.10;;;;;;;14.30;49.30;94956.00;2976276;39;20080;-81
2021/05/04 00:16:24;;;;;;;3.05;2.15;;;;;;;14.31;49.12;94948.91;2971060;40;20075;-82
2021/05/04 00:18:25;;;;;;;3.83;2.53;;;;;;;14.28;49.22;94955.34;2975275;39;20096;-82
2021/05/04 00:20:27;;;;;;;5.45;2.13;;;;;;;14.27;49.23;94947.63;2972572;39;20403;-83
2021/05/04 00:22:28;;;;;;;6.95;2.53;;;;;;;14.29;49.39;94951.72;2976735;39;20044;-81
2021/05/04 00:24:29;;;;;;;4.22;2.80;;;;;;;14.34;49.01;94953.81;2976571;39;20035;-82
2021/05/04 00:26:31;;;;;;;3.25;2.28;;;;;;;14.27;49.48;94956.34;2971567;40;20425;-81
2021/05/04 00:28:32;;;;;;;3.70;2.47;;;;;;;14.28;48.85;94959.78;2976079;39;20182;-83
2021/05/04 00:30:33;;;;;;;4.00;2.45;;;;;;;14.29;49.10;94964.06;2975411;39;20060;-80
2021/05/04 00:32:35;;;;;;;4.45;2.28;;;;;;;14.32;49.11;94964.53;2975006;39;20380;-83
2021/05/04 00:34:36;;;;;;;4.47;2.60;;;;;;;14.28;48.96;94959.78;2974721;39;20884;-81
2021/05/04 00:36:37;;;;;;;3.28;2.35;;;;;;;14.28;48.64;94965.88;2973427;39;20436;-81
2021/05/04 00:38:39;;;;;;;2.88;2.35;;;;;;;14.33;48.68;94968.81;2972320;40;20076;-83
2021/05/04 00:40:40;;;;;;;3.70;2.50;;;;;;;14.39;48.50;94966.47;2976830;39;20044;-81
2021/05/04 00:42:41;;;;;;;7.45;2.90;;;;;;;14.37;49.07;94960.53;2968962;39;20112;-81
2021/05/04 00:44:54;;;;;;;2.70;2.20;;;;;;;14.36;48.77;94964.19;2971869;39;20415;-82
2021/05/04 00:46:55;;;;;;;3.95;2.30;;;;;;;14.33;48.58;94960.91;2969216;40;20060;-77
2021/05/04 00:48:56;;;;;;;4.18;2.40;;;;;;;14.37;48.64;94965.81;2972696;39;20046;-82
2021/05/04 00:50:58;;;;;;;3.70;2.22;;;;;;;14.39;48.73;94967.31;2977176;39;20065;-81
2021/05/04 00:52:59;;;;;;;3.60;2.60;;;;;;;14.44;48.74;94964.13;2976110;39;20309;-81
2021/05/04 00:55:03;;;;;;;3.17;2.42;;;;;;;14.44;48.38;94954.41;2976815;39;20358;-82
2021/05/04 00:57:04;;;;;;;;;;;;;;;14.49;48.58;94949.41;2970647;39;20071;-82
2021/05/04 00:59:06;;;;;;;3.50;2.47;;;;;;;14.50;48.25;94942.34;2973045;39;19932;-82
2021/05/04 01:01:07;;;;;;;4.18;2.63;;;;;;;14.49;48.14;94944.13;2966001;40;20130;-83
2021/05/04 01:03:09;;;;;;;4.47;2.63;;;;;;;14.49;48.51;94933.59;2971457;40;20044;-81
2021/05/04 01:05:11;;;;;;;4.15;2.83;;;;;;;14.51;48.71;94938.69;2972662;39;20052;-81
2021/05/04 01:07:13;;;;;;;4.43;2.38;;;;;;;14.49;48.58;94938.06;2968135;40;20390;-82
2021/05/04 01:09:18;;;;;;;3.90;2.30;;;;;;;14.48;48.59;94945.16;2971135;40;20051;-82
2021/05/04 01:11:20;;;;;;;3.53;2.40;;;;;;;14.52;48.56;94943.00;2975623;39;20055;-82
2021/05/04 01:13:21;;;;;;;3.60;2.55;;;;;;;14.42;48.50;94937.13;2967570;40;20052;-83
2021/05/04 01:15:22;;;;;;;3.55;2.63;;;;;;;14.38;48.88;94939.28;2969101;40;20054;-81
2021/05/04 01:17:24;;;;;;;3.40;2.22;;;;;;;14.36;48.63;94940.47;2972195;39;20492;-81
2021/05/04 01:19:25;;;;;;;3.42;2.42;;;;;;;14.37;48.63;94942.09;2976816;39;20435;-83
2021/05/04 01:21:26;;;;;;;3.40;2.50;;;;;;;14.41;48.46;94935.47;2973942;40;20068;-83
2021/05/04 01:23:28;;;;;;;2.70;2.20;;;;;;;14.40;48.75;94936.47;2979785;39;20412;-81
2021/05/04 01:25:29;;;;;;;4.47;2.38;;;;;;;14.43;48.27;94933.47;2974399;39;20096;-82
2021/05/04 01:27:30;;;;;;;6.55;2.88;;;;;;;14.47;48.44;94930.31;2974910;39;20392;-82
2021/05/04 01:29:32;;;;;;;3.13;2.53;;;;;;;14.45;48.79;94939.41;2974064;39;20442;-82
2021/05/04 01:31:45;;;;;;;4.38;2.42;;;;;;;14.43;49.02;94933.47;2972969;39;20339;-81
2021/05/04 01:33:47;;;;;;;5.57;2.53;;;;;;;14.46;48.58;94938.41;2975339;39;20032;-83
2021/05/04 01:35:48;;;;;;;3.33;2.47;;;;;;;14.39;48.82;94946.22;2977089;39;20060;-81
2021/05/04 01:37:49;;;;;;;3.97;2.20;;;;;;;14.31;49.05;94947.09;2969983;40;20140;-81
2021/05/04 01:39:51;;;;;;;2.90;2.50;;;;;;;14.26;49.06;94948.59;2976423;39;20054;-81
2021/05/04 01:41:53;;;;;;;3.42;2.58;;;;;;;14.32;49.10;94942.63;2977683;39;20060;-81
2021/05/04 01:43:54;;;;;;;4.45;2.55;;;;;;;14.36;49.45;94945.75;2973481;39;20161;-82
2021/05/04 01:45:55;;;;;;;4.20;2.47;;;;;;;14.39;49.10;94937.47;2976443;39;20055;-82
2021/05/04 01:47:56;;;;;;;5.60;2.63;;;;;;;14.44;48.63;94946.50;2968286;40;20060;-81
2021/05/04 01:49:58;;;;;;;4.40;2.80;;;;;;;14.47;48.97;94943.50;2975025;39;20048;-81
2021/05/04 01:52:01;;;;;;;4.22;2.45;;;;;;;14.50;48.16;94944.97;2973707;39;20068;-81
2021/05/04 01:54:03;;;;;;;3.40;2.50;;;;;;;14.50;48.45;94943.16;2975551;39;20052;-82
2021/05/04 01:56:04;;;;;;;4.65;2.83;;;;;;;14.53;48.42;94944.63;2979136;39;20095;-81
2021/05/04 01:58:05;;;;;;;3.45;2.60;;;;;;;14.48;48.43;94945.16;2977381;39;20102;-83
2021/05/04 02:00:08;;;;;;;3.53;2.63;;;;;;;14.50;48.59;94945.78;2972114;39;20064;-81
2021/05/04 02:02:10;;;;;;;5.23;2.43;;;;;;;14.51;48.30;94946.59;2973010;40;20100;-82
2021/05/04 02:04:11;;;;;;;4.75;2.70;;;;;;;14.45;48.93;94948.13;2975360;39;20316;-81
2021/05/04 02:06:12;;;;;;;4.65;2.60;;;;;;;14.29;49.30;94950.91;2974500;39;20091;-82
2021/05/04 02:08:13;;;;;;;3.97;2.53;;;;;;;14.31;49.21;94949.72;2972241;39;20440;-82
2021/05/04 02:10:15;;;;;;;5.38;2.95;;;;;;;14.08;49.46;94948.88;2971388;40;20111;-82
2021/05/04 02:12:16;;;;;;;5.35;2.70;;;;;;;13.99;49.76;94949.94;2970975;40;20448;-82
2021/05/04 02:14:17;;;;;;;4.18;2.97;;;;;;;13.59;50.38;94952.59;2974777;39;20041;-82
2021/05/04 02:16:18;;;;;;;6.18;3.17;;;;;;;13.01;51.93;94959.81;2973204;39;20049;-82
2021/05/04 02:18:20;;;;;;;3.35;2.83;;;;;;;12.77;53.12;94954.59;2972265;39;20069;-83
2021/05/04 02:20:21;;;;;;;4.50;3.42;;;;;;;12.34;53.93;94956.59;2973153;39;20076;-83
2021/05/04 02:22:22;;;;;;;5.93;3.35;;;;;;;12.12;54.84;94961.50;2978679;39;20043;-82
2021/05/04 02:24:23;;;;;;;6.03;3.47;;;;;;;12.22;54.48;94951.66;2978656;39;20048;-82
2021/05/04 02:26:25;;;;;;;5.40;3.17;;;;;;;12.02;55.16;94959.03;2979313;39;20071;-82
2021/05/04 02:28:26;;;;;;;5.00;3.42;;;;;;;12.14;55.05;94959.53;2976883;39;20155;-82
2021/05/04 02:30:27;;;;;;;5.72;3.50;;;;;;;12.27;54.62;94957.22;2980931;39;20049;-82
2021/05/04 02:32:34;;;;;;;4.82;3.00;;;;;;;12.16;54.51;94954.13;2973386;40;20056;-82
2021/05/04 02:34:35;;;;;;;4.10;3.40;;;;;;;12.13;54.82;94955.28;2970345;39;20133;-69
2021/05/04 02:36:37;;;;;;;5.63;4.25;;;;;;;12.23;54.53;94953.28;2970565;39;20402;-70
2021/05/04 02:38:38;;;;;;;5.63;3.75;;;;;;;12.35;54.22;94948.53;2969558;39;20060;-70
2021/05/04 02:40:40;;;;;;;4.88;3.50;;;;;;;11.96;54.91;94957.03;2967874;40;20088;-72
2021/05/04 02:42:41;;;;;;;5.70;4.75;;;;;;;11.90;55.60;94954.25;2972012;39;20159;-70
2021/05/04 02:44:42;;;;;;;3.95;3.00;;;;;;;12.07;53.91;94956.72;2969475;39;20104;-70
2021/05/04 02:46:44;;;;;;;5.07;3.70;;;;;;;12.07;54.42;94958.53;2960630;40;20056;-71
2021/05/04 02:48:45;;;;;;;5.72;3.30;;;;;;;12.15;53.56;94958.53;2967106;40;20066;-69
2021/05/04 02:50:47;;;;;;;3.88;2.97;;;;;;;12.17;53.68;94966.25;2972660;39;20054;-69
2021/05/04 02:52:48;;;;;;;5.85;3.50;;;;;;;11.99;54.07;94969.84;2971779;39;20154;-70
2021/05/04 02:54:49;;;;;;;3.75;3.10;;;;;;;11.99;53.96;94972.47;2970055;39;20059;-70
2021/05/04 02:56:50;;;;;;;4.88;3.10;;;;;;;11.96;53.87;94971.94;2967574;40;20064;-71
2021/05/04 02:58:54;;;;;;;4.55;3.40;;;;;;;12.01;53.38;94969.69;2966863;40;20137;-69
2021/05/04 03:00:56;;;;;;;4.35;3.10;;;;;;;12.03;53.26;94980.84;2966939;40;20060;-68
2021/05/04 03:02:58;;;;;;;3.85;2.75;;;;;;;12.06;53.57;94978.69;2973651;39;20070;-71
2021/05/04 03:04:59;;;;;;;5.63;2.92;;;;;;;12.16;53.43;94981.19;2966152;40;20068;-70
2021/05/04 03:07:01;;;;;;;5.18;3.15;;;;;;;12.34;52.61;94977.59;2968926;40;20103;-70
2021/05/04 03:09:03;;;;;;;3.97;3.10;;;;;;;12.37;52.56;94977.25;2969687;39;20125;-71
2021/05/04 03:11:04;;;;;;;5.05;3.33;;;;;;;12.53;52.58;94973.84;2971503;39;20191;-71
2021/05/04 03:13:05;;;;;;;3.95;2.90;;;;;;;12.61;51.63;94971.22;2968684;39;20097;-71
2021/05/04 03:15:07;;;;;;;4.07;3.35;;;;;;;12.36;51.78;94978.25;2966145;40;20061;-70
2021/05/04 03:17:08;;;;;;;3.67;2.85;;;;;;;12.24;52.24;94978.59;2970304;39;20052;-70
2021/05/04 03:19:30;;;;;;;5.95;2.95;;;;;;;12.42;51.98;94988.94;2968740;39;20071;-71
2021/05/04 03:21:31;;;;;;;4.07;3.17;;;;;;;12.56;51.64;94984.84;2966914;40;20444;-70
2021/05/04 03:23:33;;;;;;;4.38;2.90;;;;;;;12.23;52.29;94990.06;2966811;40;20059;-70
2021/05/04 03:25:34;;;;;;;4.30;2.95;;;;;;;11.93;52.85;95001.16;2970129;39;20112;-69
2021/05/04 03:27:35;;;;;;;3.90;2.95;;;;;;;11.92;53.14;94995.09;2967197;40;20165;-70
2021/05/04 03:29:36;;;;;;;6.10;3.20;;;;;;;12.03;53.05;94992.16;2968268;39;20112;-69
2021/05/04 03:31:38;;;;;;;5.63;3.15;;;;;;;12.01;52.92;94990.69;2968935;40;20062;-69
2021/05/04 03:33:39;;;;;;;5.10;2.90;;;;;;;12.08;52.50;94989.06;2966087;40;20060;-71
2021/05/04 03:35:40;;;;;;;5.00;3.15;;;;;;;12.17;52.46;94993.31;2970389;40;20265;-70
2021/05/04 03:37:42;;;;;;;4.20;3.50;;;;;;;12.32;52.38;94997.97;2968929;39;20379;-70
2021/05/04 03:39:43;;;;;;;9.80;3.10;;;;;;;12.44;51.43;94994.84;2966113;40;20052;-69
2021/05/04 03:41:44;;;;;;;3.55;2.90;;;;;;;12.44;51.28;94996.66;2970213;39;20468;-70
2021/05/04 03:43:45;;;;;;;4.18;3.10;;;;;;;12.54;51.14;95001.75;2968341;39;20092;-69
2021/05/04 03:45:47;;;;;;;6.70;2.70;;;;;;;12.40;51.04;94995.34;2972344;39;20047;-70
2021/05/04 03:47:48;;;;;;;4.95;2.33;;;;;;;12.58;51.13;94997.81;2974695;39;20319;-69
2021/05/04 03:49:49;;;;;;;4.47;2.83;;;;;;;12.79;50.84;94992.06;2966921;40;20052;-71
2021/05/04 03:51:51;;;;;;;5.45;3.13;;;;;;;13.03;50.17;94994.66;2967792;39;20084;-69
2021/05/04 03:53:52;;;;;;;5.90;3.10;;;;;;;13.05;48.39;94995.31;2967283;40;20118;-70
2021/05/04 03:55:53;;;;;;;5.88;2.75;;;;;;;12.85;48.19;94986.16;2968827;39;20085;-71
2021/05/04 03:57:55;;;;;;;5.20;3.00;;;;;;;12.87;48.41;94987.63;2968675;39;20407;-71
2021/05/04 03:59:58;;;;;;;3.80;2.97;;;;;;;12.97;48.48;94990.09;2968786;39;20466;-82
2021/05/04 04:01:59;;;;;;;3.20;2.70;;;;;;;13.13;47.97;94999.75;2968910;39;20420;-83
2021/05/04 04:04:00;;;;;;;4.38;3.15;;;;;;;13.29;48.00;94991.03;2972524;40;20647;-82
2021/05/04 04:06:02;;;;;;;5.90;3.30;;;;;;;13.43;47.14;94995.59;2972587;39;20051;-83
2021/05/04 04:08:03;;;;;;;3.97;2.53;;;;;;;13.56;46.99;94995.06;2975590;39;20091;-81
2021/05/04 04:10:05;;;;;;;3.22;2.33;;;;;;;13.62;46.14;94993.56;2973504;39;20088;-82
2021/05/04 04:12:07;;;;;;;4.35;3.00;;;;;;;13.61;46.49;94995.34;2965044;40;20060;-81
2021/05/04 04:14:08;;;;;;;3.60;2.70;;;;;;;13.61;46.57;94991.91;2973044;39;20368;-71
2021/05/04 04:16:10;;;;;;;4.03;2.70;;;;;;;13.40;46.80;95001.22;2969755;40;20087;-70
2021/05/04 04:18:11;;;;;;;4.30;2.80;;;;;;;13.37;47.20;94996.25;2972221;39;20056;-70
2021/05/04 04:20:13;;;;;;;6.22;2.80;;;;;;;13.26;47.43;95005.31;2967816;40;20060;-71
2021/05/04 04:22:34;;;;;;;6.45;2.75;;;;;;;13.25;47.68;95010.72;2972465;39;20080;-81
2021/05/04 04:24:35;;;;;;;4.28;2.92;;;;;;;13.34;47.55;95001.06;2969308;39;20092;-70
2021/05/04 04:26:37;;;;;;;3.90;3.30;;;;;;;13.34;48.03;95008.97;2969382;39;20094;-71
2021/05/04 04:28:38;;;;;;;4.65;2.90;;;;;;;13.44;47.97;94999.88;2972973;39;20091;-70
2021/05/04 04:30:39;;;;;;;4.25;3.17;;;;;;;13.57;47.76;94998.50;2967891;40;20060;-70
2021/05/04 04:32:40;;;;;;;6.95;2.95;;;;;;;13.48;48.27;95003.78;2970113;39;20147;-70
2021/05/04 04:34:42;;;;;;;4.05;3.10;;;;;;;13.13;49.23;95009.44;2973009;39;20059;-70
2021/05/04 04:36:43;;;;;;;4.43;3.05;;;;;;;12.92;50.02;95013.41;2969091;40;20294;-81
2021/05/04 04:38:44;;;;;;;4.63;3.00;;;;;;;13.04;49.93;95017.34;2968403;40;20085;-71
2021/05/04 04:41:05;;;;;;;5.65;3.65;;;;;;;13.24;49.08;95017.81;2974829;39;20044;-70
2021/05/04 04:43:07;;;;;;;5.47;3.30;;;;;;;13.43;48.51;95011.38;2970171;40;20084;-83
2021/05/04 04:45:08;;;;;;;4.32;3.03;;;;;;;13.59;47.84;95022.84;2974278;39;20133;-82
2021/05/04 04:47:13;;;;;;;3.25;2.55;;;;;;;13.78;47.09;95009.28;2969084;40;20467;-82
2021/05/04 04:49:18;;;;;;;7.05;3.40;;;;;;;13.91;47.13;95012.19;2969417;39;20067;-84
2021/05/04 04:51:19;;;;;;;4.88;3.58;;;;;;;13.86;47.65;95011.06;2978327;39;20108;-81
2021/05/04 04:53:20;;;;;;;3.85;2.85;;;;;;;13.99;46.93;95005.25;2975906;40;20083;-71
2021/05/04 04:55:21;;;;;;;5.43;2.67;;;;;;;13.89;47.48;95011.53;2969886;39;20074;-71
2021/05/04 04:57:23;;;;;;;6.03;3.33;;;;;;;13.84;47.79;95013.06;2968477;39;20048;-71
2021/05/04 04:59:24;;;;;;;4.65;3.25;;;;;;;13.84;47.84;95013.88;2967402;40;20045;-70
2021/05/04 05:01:25;;;;;;;3.83;3.10;;;;;;;13.76;47.73;95013.91;2968118;40;20052;-70
2021/05/04 05:03:27;;;;;;;3.97;3.15;;;;;;;13.71;47.68;95016.22;2968236;39;20052;-73
2021/05/04 05:05:28;;;;;;;4.28;3.00;;;;;;;13.69;47.67;95018.22;2971348;39;20055;-70
2021/05/04 05:07:31;;;;;;;4.45;3.33;;;;;;;13.76;48.10;95015.72;2971011;39;20051;-71
2021/05/04 05:09:35;;;;;;;5.60;3.03;;;;;;;13.69;46.74;95026.09;2972136;39;20055;-72
2021/05/04 05:11:37;;;;;;;5.15;2.70;;;;;;;13.56;47.17;95026.66;2967585;40;20052;-69
2021/05/04 05:13:38;;;;;;;3.83;2.83;;;;;;;12.89;49.10;95027.72;2970310;39;20044;-71
2021/05/04 05:15:41;;;;;;;4.53;3.42;;;;;;;12.63;49.67;95029.69;2969215;39;20297;-71
2021/05/04 05:17:42;;;;;;;4.45;2.97;;;;;;;12.76;49.34;95022.13;2968363;39;20406;-70
2021/05/04 05:19:43;;;;;;;4.97;2.83;;;;;;;12.83;49.43;95015.22;2972550;39;20310;-71
2021/05/04 05:21:45;;;;;;;3.47;2.83;;;;;;;12.91;48.78;95017.84;2962173;40;20319;-71
2021/05/04 05:23:46;;;;;;;3.92;2.95;;;;;;;13.21;48.66;95017.34;2969615;39;20066;-70
2021/05/04 05:25:48;;;;;;;3.70;2.72;;;;;;;13.56;47.69;95013.47;2976007;39;20068;-83
2021/05/04 05:27:49;;;;;;;5.05;2.95;;;;;;;13.90;46.89;95005.28;2973582;40;20073;-70
2021/05/04 05:29:50;;;;;;;4.75;2.97;;;;;;;14.19;46.55;95008.25;2967589;40;20060;-72
2021/05/04 05:31:54;;;;;;;;;;;;;;;14.35;46.06;95010.81;2968340;40;20067;-70
2021/05/04 05:33:55;;;;;;;5.22;3.47;;;;;;;14.33;45.88;95010.97;2971285;39;19960;-69
2021/05/04 05:35:57;;;;;;;3.47;2.67;;;;;;;14.44;45.63;95011.56;2968571;40;20056;-70
2021/05/04 05:38:04;;;;;;;7.60;2.85;;;;;;;14.57;45.14;95008.38;2967952;39;20449;-71
2021/05/04 05:40:06;;;;;;;4.55;3.55;;;;;;;14.66;44.78;95000.22;2967461;40;20044;-69
2021/05/04 05:42:10;;;;;;;3.88;3.20;;;;;;;14.81;44.51;94996.81;2970427;39;20058;-72
2021/05/04 05:44:13;;;;;;;3.47;2.83;;;;;;;14.99;44.45;94994.66;2970209;39;20136;-71
2021/05/04 05:46:15;;;;;;;5.40;3.00;;;;;;;15.14;43.96;94990.25;2975667;39;20063;-71
2021/05/04 05:48:16;;;;;;;4.88;2.80;;;;;;;15.25;43.82;94989.00;2974858;39;20154;-70
2021/05/04 05:50:18;;;;;;;4.18;2.95;;;;;;;15.32;43.79;94987.28;2974547;39;20074;-70
2021/05/04 05:52:19;;;;;;;3.60;2.92;;;;;;;14.88;44.41;94980.09;2970792;39;20137;-70
2021/05/04 05:54:20;;;;;;;4.63;3.15;;;;;;;13.95;46.40;94985.50;2967131;40;20074;-70
2021/05/04 05:56:22;;;;;;;3.90;3.22;;;;;;;13.64;47.64;94976.59;2969909;39;20067;-70
2021/05/04 05:58:23;;;;;;;5.20;2.97;;;;;;;13.68;47.64;94972.66;2971599;39;20155;-71
2021/05/04 06:00:25;;;;;;;5.38;2.90;;;;;;;13.81;46.96;94973.88;2968961;39;20081;-71
2021/05/04 06:02:27;;;;;;;4.03;3.10;;;;;;;14.01;46.30;94964.56;2966062;40;20087;-71
2021/05/04 06:04:28;;;;;;;5.65;3.20;;;;;;;14.08;46.75;94962.88;2968852;39;20118;-71
2021/05/04 06:06:29;;;;;;;4.22;3.45;;;;;;;13.76;47.04;94968.31;2969043;39;20056;-83
2021/05/04 06:08:30;;;;;;;5.07;3.17;;;;;;;13.83;47.15;94964.84;2973828;39;20111;-82
2021/05/04 06:10:32;;;;;;;4.43;3.20;;;;;;;13.94;46.47;94963.63;2976928;39;20075;-82
2021/05/04 06:12:33;;;;;;;4.45;3.20;;;;;;;14.00;47.22;94959.47;2976146;39;20133;-83
2021/05/04 06:14:34;;;;;;;4.32;3.22;;;;;;;14.15;46.89;94957.72;2970747;39;20083;-83
2021/05/04 06:16:36;;;;;;;4.30;3.15;;;;;;;14.45;45.76;94957.84;2973734;40;20045;-81
2021/05/04 06:18:37;;;;;;;3.35;2.70;;;;;;;14.79;45.20;94954.78;2974543;39;20067;-81
2021/05/04 06:20:39;;;;;;;3.70;2.65;;;;;;;15.05;44.58;94954.38;2979022;39;20032;-83
2021/05/04 06:22:40;;;;;;;5.13;3.28;;;;;;;14.74;44.52;94944.78;2963830;40;20336;-82
2021/05/04 06:24:41;;;;;;;4.90;3.25;;;;;;;14.63;44.83;94942.59;2973777;39;20306;-83
2021/05/04 06:26:42;;;;;;;3.67;2.95;;;;;;;14.48;45.40;94946.97;2969681;39;20449;-70
2021/05/04 06:28:48;;;;;;;3.80;3.00;;;;;;;14.32;45.93;94940.81;2967568;40;20056;-70
2021/05/04 06:30:49;;;;;;;7.43;3.28;;;;;;;14.49;46.23;94948.59;2974698;39;20081;-70
2021/05/04 06:32:51;;;;;;;3.60;2.97;;;;;;;14.79;46.49;94940.81;2966421;40;20060;-71
2021/05/04 06:34:52;;;;;;;4.15;2.90;;;;;;;15.10;45.23;94935.38;2968452;39;20139;-70
2021/05/04 06:36:53;;;;;;;6.50;2.92;;;;;;;15.22;44.42;94933.13;2972091;39;20088;-71
2021/05/04 06:38:54;;;;;;;7.50;2.55;;;;;;;15.03;44.76;94930.00;2965835;40;20099;-69
2021/05/04 06:40:56;;;;;;;4.25;2.65;;;;;;;14.88;45.05;94937.06;2969524;39;20449;-71
2021/05/04 06:42:58;;;;;;;4.10;2.75;;;;;;;14.63;45.43;94942.59;2969009;39;20078;-70
2021/05/04 06:45:00;;;;;;;4.70;2.80;;;;;;;14.97;45.03;94936.03;2972636;39;20281;-72
2021/05/04 06:47:03;;;;;;;6.68;3.30;;;;;;;15.11;43.88;94931.75;2975539;39;20046;-72
2021/05/04 06:49:04;;;;;;;3.35;2.78;;;;;;;15.24;44.11;94931.94;2969048;39;20048;-71
2021/05/04 06:51:05;;;;;;;5.53;3.00;;;;;;;15.28;43.66;94935.03;2973908;39;20295;-72
2021/05/04 06:53:07;;;;;;;4.60;3.55;;;;;;;15.13;43.48;94935.84;2970544;39;20072;-71
2021/05/04 06:55:09;;;;;;;3.80;2.95;;;;;;;15.17;42.89;94927.56;2969430;39;20355;-71
2021/05/04 06:57:11;;;;;;;5.88;2.55;;;;;;;14.65;42.96;94930.03;2973742;39;20489;-71
2021/05/04 06:59:13;;;;;;;4.45;2.95;;;;;;;14.61;43.71;94935.84;2968237;39;20053;-71
2021/05/04 07:01:15;;;;;;;4.38;2.75;;;;;;;14.63;43.64;94928.59;2968243;40;20336;-70
2021/05/04 07:03:17;;;;;;;5.97;2.72;;;;;;;14.64;43.19;94924.94;2970230;39;20048;-71
2021/05/04 07:05:19;;;;;;;3.78;2.70;;;;;;;14.53;43.42;94934.88;2967225;40;20056;-72
2021/05/04 07:07:20;;;;;;;6.40;2.72;;;;;;;14.86;43.12;94921.44;2973419;39;20496;-70
2021/05/04 07:09:21;;;;;;;5.55;3.45;;;;;;;15.01;42.53;94912.72;2972453;39;20438;-70
2021/05/04 07:11:23;;;;;;;5.32;2.80;;;;;;;14.89;42.54;94912.34;2967485;40;20044;-70
2021/05/04 07:13:25;;;;;;;3.80;2.92;;;;;;;14.97;42.35;94914.91;2969935;39;20123;-72
2021/05/04 07:15:26;;;;;;;5.05;3.10;;;;;;;14.76;42.99;94912.16;2968832;39;20052;-71
2021/05/04 07:17:27;;;;;;;4.47;2.50;;;;;;;14.54;43.68;94906.72;2968807;39;20051;-71
2021/05/04 07:19:29;;;;;;;6.00;2.63;;;;;;;14.81;43.30;94899.25;2970716;39;20052;-70
2021/05/04 07:21:30;;;;;;;6.88;2.83;;;;;;;15.03;42.96;94900.16;2969413;39;20068;-76
2021/05/04 07:23:33;;;;;;;7.30;2.85;;;;;;;15.35;42.34;94901.63;2968650;39;20048;-71
2021/05/04 07:25:35;;;;;;;3.47;2.70;;;;;;;15.54;42.00;94900.22;2965858;40;20064;-71
2021/05/04 07:27:36;;;;;;;3.63;2.92;;;;;;;15.81;41.80;94906.69;2969660;39;20152;-70
2021/05/04 07:29:37;;;;;;;8.52;4.15;;;;;;;15.48;41.28;94901.78;2967023;40;20132;-69
2021/05/04 07:31:39;;;;;;;4.45;2.63;;;;;;;15.15;42.30;94902.16;2968515;40;20053;-71
2021/05/04 07:33:40;;;;;;;6.28;2.38;;;;;;;15.43;41.67;94909.44;2969845;39;20074;-70
2021/05/04 07:35:42;;;;;;;4.57;2.63;;;;;;;15.64;41.26;94899.94;2971100;39;20075;-70
2021/05/04 07:37:43;;;;;;;3.38;2.38;;;;;;;15.81;41.12;94903.19;2963241;40;20171;-71
2021/05/04 07:39:45;;;;;;;6.75;2.45;;;;;;;15.96;40.71;94909.28;2965567;40;20068;-70
2021/05/04 07:41:46;;;;;;;4.85;2.78;;;;;;;15.95;40.23;94910.28;2968845;39;20064;-72
2021/05/04 07:43:47;;;;;;;3.75;2.80;;;;;;;16.14;40.00;94908.84;2960261;40;20060;-81
2021/05/04 07:45:49;;;;;;;4.03;2.30;;;;;;;16.49;39.95;94898.38;2970107;39;20076;-82
2021/05/04 07:47:56;;;;;;;4.55;2.38;;;;;;;16.49;38.56;94896.56;2974260;39;20387;-83
2021/05/04 07:49:57;;;;;;;2.83;1.88;;;;;;;16.28;38.48;94901.84;2974796;39;20133;-80
2021/05/04 07:51:58;;;;;;;4.50;2.20;;;;;;;16.30;38.10;94903.28;2973170;39;20052;-83
2021/05/04 07:53:59;;;;;;;3.60;2.28;;;;;;;16.22;38.38;94902.59;2974762;39;20158;-82
2021/05/04 07:56:01;;;;;;;4.95;2.33;;;;;;;16.16;38.21;94907.66;2970844;39;20080;-81
2021/05/04 07:58:02;;;;;;;4.05;2.70;;;;;;;16.08;38.95;94906.97;2973220;39;20107;-83
2021/05/04 08:00:05;;;;;;;4.32;2.30;;;;;;;16.35;38.20;94902.75;2974127;39;20071;-82
2021/05/04 08:02:06;;;;;;;2.90;2.28;;;;;;;16.51;38.08;94897.19;2963790;40;20491;-81
2021/05/04 08:04:07;;;;;;;4.15;2.40;;;;;;;16.48;37.97;94894.13;2972059;39;20081;-83
2021/05/04 08:06:09;;;;;;;3.85;2.30;;;;;;;16.78;37.32;94892.13;2969744;40;20048;-82
2021/05/04 08:08:12;;;;;;;6.80;2.53;;;;;;;16.91;37.68;94883.50;2975564;39;20495;-84
2021/05/04 08:10:13;;;;;;;8.18;3.60;;;;;;;17.01;37.63;94886.59;2972929;39;20052;-81
2021/05/04 08:12:14;;;;;;;3.65;2.50;;;;;;;17.37;35.99;94877.63;2971170;40;20080;-83
2021/05/04 08:14:18;;;;;;;6.82;2.47;;;;;;;17.50;36.43;94867.09;2976338;39;20067;-82
2021/05/04 08:16:20;;;;;;;5.32;2.33;;;;;;;17.61;35.80;94868.34;2975532;39;20063;-83
2021/05/04 08:18:21;;;;;;;6.18;2.33;;;;;;;17.85;35.94;94863.56;2974873;39;20109;-83
2021/05/04 08:20:26;;;;;;;3.08;2.20;;;;;;;18.02;35.35;94856.88;2967539;40;20048;-72
2021/05/04 08:22:27;;;;;;;3.75;3.03;;;;;;;18.20;35.13;94849.16;2966519;40;20045;-71
2021/05/04 08:24:28;;;;;;;10.13;2.55;;;;;;;18.30;35.30;94855.88;2969099;39;20145;-71
2021/05/04 08:26:29;;;;;;;4.00;2.60;;;;;;;18.18;35.07;94850.38;2971384;39;20073;-71
2021/05/04 08:28:31;;;;;;;5.55;2.85;;;;;;;17.20;36.88;94858.59;2968468;39;20090;-70
2021/05/04 08:30:32;;;;;;;4.75;2.60;;;;;;;17.01;36.95;94857.47;2968748;39;20093;-71
2021/05/04 08:32:34;;;;;;;5.82;2.58;;;;;;;17.39;36.14;94851.75;2966141;40;20151;-71
2021/05/04 08:34:35;;;;;;;4.90;2.70;;;;;;;17.18;35.90;94860.63;2970080;39;20056;-71
2021/05/04 08:36:37;;;;;;;4.60;2.45;;;;;;;17.24;36.24;94851.91;2971317;39;20124;-71
2021/05/04 08:38:38;;;;;;;6.80;2.65;;;;;;;17.46;36.16;94849.13;2966658;40;20072;-71
2021/05/04 08:40:39;;;;;;;5.90;3.03;;;;;;;17.59;35.45;94855.31;2968506;39;20074;-71
2021/05/04 08:42:41;;;;;;;6.30;2.03;;;;;;;17.11;35.08;94855.28;2966336;40;20318;-71
2021/05/04 08:44:44;;;;;;;5.50;2.58;;;;;;;17.34;35.01;94846.25;2966981;39;20068;-71
2021/05/04 08:46:47;;;;;;;4.07;2.20;;;;;;;17.29;34.78;94838.06;2971832;39;20797;-71
2021/05/04 08:48:49;;;;;;;5.97;2.20;;;;;;;17.59;34.32;94841.25;2970040;39;20419;-71
2021/05/04 08:50:56;;;;;;;3.00;2.05;;;;;;;17.47;34.01;94842.84;2959715;40;20140;-71
2021/05/04 08:53:17;;;;;;;4.03;2.15;;;;;;;17.64;34.30;94836.19;2966948;39;20060;-73
2021/05/04 08:55:19;;;;;;;3.38;1.92;;;;;;;17.76;33.29;94837.22;2971203;39;20064;-73
2021/05/04 08:57:20;;;;;;;2.85;1.98;;;;;;;17.97;32.81;94828.31;2967493;39;20080;-72
2021/05/04 08:59:21;;;;;;;5.40;2.10;;;;;;;18.17;32.62;94828.34;2970169;39;20068;-72
2021/05/04 09:01:22;;;;;;;5.57;2.00;;;;;;;18.55;32.65;94830.38;2970985;39;20405;-71
2021/05/04 09:03:55;;;;;;;2.65;1.80;;;;;;;18.69;31.87;94833.03;2969047;39;20095;-71
2021/05/04 09:06:17;;;;;;;2.75;1.88;;;;;;;18.80;31.02;94825.31;2971016;39;20060;-71
2021/05/04 09:10:45;;;;;;;2.63;1.80;;;;;;;18.54;31.33;94838.53;2973215;39;20168;-73
2021/05/04 09:14:53;;;;;;;3.38;2.00;;;;;;;18.82;32.40;94820.59;2971234;39;20336;-71
2021/05/04 09:17:09;;;;;;;3.17;2.22;;;;;;;19.07;32.30;94825.22;2971672;39;20059;-85
2021/05/04 09:21:31;;;;;;;9.87;2.57;;;;;;;19.39;32.12;94815.53;2972777;39;20149;-83
2021/05/04 09:23:33;;;;;;;7.65;2.17;;;;;;;19.65;31.68;94808.44;2972430;40;20067;-83
2021/05/04 09:25:36;;;;;;;5.47;2.33;;;;;;;19.89;30.69;94798.94;2975096;40;20341;-82
2021/05/04 09:27:37;;;;;;;5.15;2.25;;;;;;;19.78;30.88;94797.78;2963133;40;20060;-82
2021/05/04 09:29:39;;;;;;;3.13;2.17;;;;;;;19.46;31.44;94794.22;2972370;39;20070;-84
2021/05/04 09:31:42;;;;;;;5.47;2.28;;;;;;;19.58;32.24;94800.53;2971693;40;20082;-82
2021/05/04 09:33:43;;;;;;;3.55;2.40;;;;;;;19.56;31.38;94796.44;2976612;39;20505;-83
2021/05/04 09:35:45;;;;;;;4.25;2.40;;;;;;;19.74;31.46;94793.91;2970667;39;20078;-70
2021/05/04 09:37:46;;;;;;;5.47;2.40;;;;;;;19.85;32.01;94792.41;2966815;40;20044;-74
2021/05/04 09:39:47;;;;;;;3.42;2.40;;;;;;;20.14;31.33;94792.84;2970642;39;20473;-72
2021/05/04 09:41:49;;;;;;;3.95;2.78;;;;;;;20.45;30.11;94787.47;2964058;40;20076;-72